createdAt,value
2018-08-02T00:02:05.118Z,99.90
2018-08-02T00:04:33.913Z,99.90
2018-08-02T00:07:02.410Z,99.90
2018-08-02T00:09:30.836Z,99.90
2018-08-02T00:11:59.348Z,99.90
2018-08-02T00:14:27.892Z,99.90
2018-08-02T00:16:56.312Z,99.90
2018-08-02T00:19:24.771Z,99.90
2018-08-02T00:21:53.795Z,99.90
2018-08-02T00:24:22.268Z,99.90
2018-08-02T00:26:50.748Z,99.90
2018-08-02T00:29:19.172Z,99.90
2018-08-02T00:31:47.936Z,99.90
2018-08-02T00:36:44.483Z,99.90
2018-08-02T00:39:13.852Z,99.90
2018-08-02T00:41:42.376Z,99.90
2018-08-02T00:44:11.596Z,99.90
2018-08-02T00:46:40.736Z,99.90
2018-08-02T00:49:09.475Z,99.90
2018-08-02T00:51:37.969Z,99.90
2018-08-02T00:54:07.240Z,99.90
2018-08-02T00:56:35.824Z,99.90
2018-08-02T00:59:04.330Z,99.90
2018-08-02T01:01:32.716Z,99.90
2018-08-02T01:04:01.109Z,99.90
2018-08-02T01:08:57.693Z,99.90
2018-08-02T01:11:26.139Z,99.90
2018-08-02T01:13:54.620Z,99.90
2018-08-02T01:16:23.189Z,99.90
2018-08-02T01:18:51.581Z,99.90
2018-08-02T01:21:20.131Z,99.90
2018-08-02T01:23:48.606Z,99.90
2018-08-02T01:26:17.081Z,99.90
2018-08-02T01:31:14.305Z,99.90
2018-08-02T01:33:42.858Z,99.90
2018-08-02T01:36:11.335Z,99.90
2018-08-02T01:38:39.852Z,99.90
2018-08-02T01:41:08.356Z,99.90
2018-08-02T01:43:36.884Z,99.90
2018-08-02T01:46:05.314Z,99.90
2018-08-02T01:48:33.743Z,99.90
2018-08-02T01:51:02.151Z,99.90
2018-08-02T01:53:30.580Z,99.90
2018-08-02T01:55:59.799Z,99.90
2018-08-02T01:58:28.258Z,99.90
2018-08-02T02:00:56.745Z,99.90
2018-08-02T02:03:25.140Z,99.90
2018-08-02T02:05:53.647Z,99.90
2018-08-02T02:08:22.023Z,99.90
2018-08-02T02:10:51.236Z,99.90
2018-08-02T02:13:20.192Z,99.90
2018-08-02T02:15:48.639Z,99.90
2018-08-02T02:18:17.348Z,99.90
2018-08-02T02:20:45.834Z,99.90
2018-08-02T02:23:14.442Z,99.90
2018-08-02T02:25:43.010Z,99.90
2018-08-02T02:28:11.627Z,99.90
2018-08-02T02:30:40.024Z,99.90
2018-08-02T02:33:08.541Z,99.90
2018-08-02T02:35:36.983Z,99.90
2018-08-02T02:38:05.552Z,99.90
2018-08-02T02:40:34.044Z,99.90
2018-08-02T02:43:02.669Z,99.90
2018-08-02T02:45:31.213Z,99.90
2018-08-02T02:47:59.623Z,99.90
2018-08-02T02:50:28.288Z,99.90
2018-08-02T02:52:56.749Z,99.90
2018-08-02T02:55:25.210Z,99.90
2018-08-02T02:57:53.703Z,99.90
2018-08-02T03:00:22.166Z,99.90
2018-08-02T03:02:50.902Z,99.90
2018-08-02T03:05:19.385Z,99.90
2018-08-02T03:07:47.795Z,99.90
2018-08-02T03:10:16.305Z,99.90
2018-08-02T03:12:44.776Z,99.90
2018-08-02T03:15:13.345Z,99.90
2018-08-02T03:17:41.820Z,99.90
2018-08-02T03:20:10.281Z,99.90
2018-08-02T03:22:38.779Z,99.90
2018-08-02T03:25:08.106Z,99.90
2018-08-02T03:27:36.563Z,99.90
2018-08-02T03:30:05.731Z,99.90
2018-08-02T03:32:34.355Z,99.90
2018-08-02T03:35:02.893Z,99.90
2018-08-02T03:37:31.369Z,99.90
2018-08-02T03:39:59.779Z,99.90
2018-08-02T03:42:28.238Z,99.90
2018-08-02T03:44:56.839Z,99.90
2018-08-02T03:47:25.391Z,99.90
2018-08-02T03:49:54.372Z,99.60
2018-08-02T03:52:22.824Z,99.90
2018-08-02T03:54:51.319Z,99.90
2018-08-02T03:57:19.762Z,99.90
2018-08-02T03:59:48.247Z,99.90
2018-08-02T04:02:16.851Z,99.90
2018-08-02T04:04:45.244Z,99.90
2018-08-02T04:07:13.716Z,99.90
2018-08-02T04:12:21.380Z,99.90
2018-08-02T04:14:49.886Z,99.70
2018-08-02T04:17:18.367Z,99.60
2018-08-02T04:19:46.996Z,99.60
2018-08-02T04:22:15.392Z,99.80
2018-08-02T04:24:43.847Z,99.90
2018-08-02T04:27:12.313Z,99.90
2018-08-02T04:29:40.862Z,99.90
2018-08-02T04:32:09.629Z,99.90
2018-08-02T04:34:38.072Z,99.80
2018-08-02T04:37:06.519Z,99.90
2018-08-02T04:39:35.068Z,99.90
2018-08-02T04:42:03.615Z,99.90
2018-08-02T04:44:32.086Z,99.70
2018-08-02T04:47:00.530Z,99.30
2018-08-02T04:49:29.019Z,99.80
2018-08-02T04:51:57.516Z,99.40
2018-08-02T04:54:26.199Z,99.50
2018-08-02T04:56:54.651Z,98.40
2018-08-02T04:59:23.253Z,98.40
2018-08-02T05:01:51.711Z,98.80
2018-08-02T05:04:20.246Z,98.00
2018-08-02T05:06:48.742Z,99.00
2018-08-02T05:09:17.911Z,98.60
2018-08-02T05:11:46.329Z,99.10
2018-08-02T05:14:14.807Z,99.00
2018-08-02T05:16:43.275Z,98.70
2018-08-02T05:19:11.687Z,98.40
2018-08-02T05:21:40.248Z,99.80
2018-08-02T05:24:08.808Z,99.00
2018-08-02T05:26:37.409Z,98.20
2018-08-02T05:29:06.036Z,96.60
2018-08-02T05:31:34.572Z,97.40
2018-08-02T05:34:03.190Z,97.60
2018-08-02T05:39:00.183Z,96.30
2018-08-02T05:41:28.678Z,95.70
2018-08-02T05:43:57.413Z,95.90
2018-08-02T05:46:26.098Z,94.70
2018-08-02T05:48:54.776Z,96.20
2018-08-02T05:51:23.432Z,95.00
2018-08-02T05:53:51.929Z,96.90
2018-08-02T05:56:20.479Z,95.30
2018-08-02T05:58:49.092Z,93.80
2018-08-02T06:01:17.627Z,94.10
2018-08-02T06:03:46.859Z,94.30
2018-08-02T06:06:15.325Z,93.40
2018-08-02T06:08:43.812Z,93.00
2018-08-02T06:11:12.387Z,92.40
2018-08-02T06:13:40.892Z,92.30
2018-08-02T06:16:09.364Z,91.20
2018-08-02T06:18:38.010Z,91.70
2018-08-02T06:21:06.535Z,92.10
2018-08-02T06:23:35.074Z,90.80
2018-08-02T06:26:03.633Z,91.90
2018-08-02T06:28:32.244Z,89.50
2018-08-02T06:31:00.841Z,91.90
2018-08-02T06:33:29.370Z,91.90
2018-08-02T06:35:57.844Z,89.90
2018-08-02T06:38:26.710Z,88.70
2018-08-02T06:40:55.347Z,89.40
2018-08-02T06:43:27.868Z,86.10
2018-08-02T06:45:56.444Z,87.30
2018-08-02T06:48:23.708Z,84.10
2018-08-02T06:50:52.195Z,85.20
2018-08-02T06:53:20.714Z,82.60
2018-08-02T06:55:49.252Z,83.70
2018-08-02T06:58:17.685Z,81.60
2018-08-02T07:00:46.162Z,79.60
2018-08-02T07:05:42.846Z,78.10
2018-08-02T07:08:11.271Z,76.20
2018-08-02T07:10:40.580Z,75.60
2018-08-02T07:13:09.081Z,74.60
2018-08-02T07:15:37.668Z,74.90
2018-08-02T07:18:06.840Z,75.50
2018-08-02T07:20:35.452Z,72.30
2018-08-02T07:23:03.940Z,72.60
2018-08-02T07:25:32.546Z,71.60
2018-08-02T07:28:01.712Z,69.20
2018-08-02T07:30:30.235Z,68.60
2018-08-02T07:32:59.331Z,70.50
2018-08-02T07:35:27.865Z,69.70
2018-08-02T07:37:56.412Z,68.70
2018-08-02T07:40:25.066Z,70.90
2018-08-02T07:42:53.659Z,70.00
2018-08-02T07:45:22.116Z,69.50
2018-08-02T07:47:50.567Z,67.40
2018-08-02T07:50:19.698Z,69.40
2018-08-02T07:52:48.163Z,68.50
2018-08-02T07:55:16.746Z,68.00
2018-08-02T07:57:45.184Z,66.40
2018-08-02T08:00:13.803Z,64.70
2018-08-02T08:02:42.315Z,66.20
2018-08-02T08:05:11.065Z,66.00
2018-08-02T08:07:39.575Z,64.20
2018-08-02T08:10:08.371Z,60.70
2018-08-02T08:12:37.042Z,59.10
2018-08-02T08:15:06.517Z,57.00
2018-08-02T08:17:35.006Z,56.00
2018-08-02T08:20:03.601Z,52.90
2018-08-02T08:22:32.083Z,50.40
2018-08-02T08:25:00.575Z,48.90
2018-08-02T08:27:29.018Z,47.90
2018-08-02T08:29:58.673Z,49.20
2018-08-02T08:34:55.437Z,48.80
2018-08-02T08:37:24.652Z,49.40
2018-08-02T08:39:54.119Z,47.30
2018-08-02T08:42:22.735Z,47.60
2018-08-02T08:44:51.292Z,45.10
2018-08-02T08:47:19.999Z,45.00
2018-08-02T08:49:49.875Z,42.60
2018-08-02T08:52:18.461Z,43.20
2018-08-02T08:54:47.080Z,40.00
2018-08-02T08:57:15.519Z,39.30
2018-08-02T08:59:47.488Z,37.70
2018-08-02T09:02:16.061Z,38.50
2018-08-02T09:04:45.095Z,38.70
2018-08-02T09:07:14.481Z,35.20
2018-08-02T09:09:43.157Z,37.60
2018-08-02T09:12:11.704Z,35.80
2018-08-02T09:14:40.280Z,35.00
2018-08-02T09:17:09.085Z,35.10
2018-08-02T09:19:37.620Z,37.40
2018-08-02T09:22:06.352Z,37.00
2018-08-02T09:24:35.809Z,34.80
2018-08-02T09:29:33.599Z,35.10
2018-08-02T09:32:02.091Z,34.40
2018-08-02T09:34:30.739Z,35.60
2018-08-02T09:37:00.160Z,36.70
2018-08-02T09:39:29.295Z,36.70
2018-08-02T09:41:57.926Z,35.40
2018-08-02T09:44:26.511Z,34.00
2018-08-02T09:46:55.146Z,35.80
2018-08-02T09:49:23.461Z,35.60
2018-08-02T09:51:51.955Z,34.10
2018-08-02T09:54:20.397Z,34.30
2018-08-02T09:56:48.930Z,34.10
2018-08-02T09:59:17.301Z,35.10
2018-08-02T10:01:51.213Z,34.80
2018-08-02T10:04:19.668Z,35.60
2018-08-02T10:06:48.147Z,35.10
2018-08-02T10:09:16.907Z,36.90
2018-08-02T10:11:45.472Z,36.30
2018-08-02T10:14:14.123Z,36.50
2018-08-02T10:16:43.198Z,36.10
2018-08-02T10:19:11.648Z,34.80
2018-08-02T10:21:40.175Z,37.30
2018-08-02T10:24:08.702Z,36.00
2018-08-02T10:26:37.340Z,35.80
2018-08-02T10:29:05.967Z,36.50
2018-08-02T10:31:34.458Z,36.70
2018-08-02T10:34:02.969Z,37.20
2018-08-02T10:36:31.552Z,37.40
2018-08-02T10:39:00.023Z,37.70
2018-08-02T10:41:28.521Z,37.00
2018-08-02T10:43:56.987Z,36.60
2018-08-02T10:46:25.401Z,35.50
2018-08-02T10:48:54.122Z,33.60
2018-08-02T10:51:22.582Z,35.10
2018-08-02T10:53:51.055Z,33.30
2018-08-02T10:56:19.547Z,33.40
2018-08-02T10:58:48.147Z,32.60
2018-08-02T11:01:16.804Z,32.10
2018-08-02T11:03:45.337Z,31.20
2018-08-02T11:06:13.779Z,31.70
2018-08-02T11:08:42.340Z,32.10
2018-08-02T11:11:11.099Z,33.40
2018-08-02T11:13:39.568Z,31.80
2018-08-02T11:16:08.010Z,32.70
2018-08-02T11:18:36.496Z,30.10
2018-08-02T11:21:05.108Z,28.10
2018-08-02T11:23:33.781Z,29.60
2018-08-02T11:26:02.336Z,30.20
2018-08-02T11:28:30.873Z,27.50
2018-08-02T11:30:59.464Z,28.10
2018-08-02T11:33:28.684Z,28.10
2018-08-02T11:35:57.191Z,27.00
2018-08-02T11:38:25.889Z,26.30
2018-08-02T11:40:54.428Z,26.40
2018-08-02T11:43:22.926Z,25.90
2018-08-02T11:45:51.380Z,26.60
2018-08-02T11:48:19.843Z,28.40
2018-08-02T11:50:48.484Z,28.10
2018-08-02T11:53:17.015Z,26.50
2018-08-02T11:55:45.507Z,27.00
2018-08-02T11:58:14.042Z,25.60
2018-08-02T12:00:42.503Z,26.10
2018-08-02T12:03:11.028Z,27.10
2018-08-02T12:05:39.484Z,28.60
2018-08-02T12:08:07.960Z,29.10
2018-08-02T12:10:37.147Z,26.50
2018-08-02T12:13:05.638Z,26.50
2018-08-02T12:15:34.056Z,24.70
2018-08-02T12:18:03.407Z,25.80
2018-08-02T12:20:31.804Z,24.50
2018-08-02T12:23:00.367Z,24.70
2018-08-02T12:25:28.859Z,26.30
2018-08-02T12:27:57.391Z,28.30
2018-08-02T12:32:54.484Z,27.90
2018-08-02T12:35:22.980Z,25.00
2018-08-02T12:37:51.523Z,26.40
2018-08-02T12:40:19.996Z,25.20
2018-08-02T12:42:48.686Z,24.60
2018-08-02T12:45:17.208Z,24.10
2018-08-02T12:47:45.729Z,24.20
2018-08-02T12:50:14.305Z,22.50
2018-08-02T12:52:42.834Z,24.00
2018-08-02T12:55:11.343Z,23.60
2018-08-02T12:57:39.830Z,23.80
2018-08-02T13:00:08.416Z,23.00
2018-08-02T13:02:36.811Z,23.40
2018-08-02T13:05:06.016Z,23.40
2018-08-02T13:07:34.496Z,24.20
2018-08-02T13:10:02.923Z,24.80
2018-08-02T13:12:31.370Z,26.00
2018-08-02T13:15:00.083Z,26.80
2018-08-02T13:17:28.356Z,25.90
2018-08-02T13:19:56.827Z,25.80
2018-08-02T13:22:25.417Z,25.60
2018-08-02T13:24:54.091Z,24.70
2018-08-02T13:27:22.669Z,27.40
2018-08-02T13:29:51.152Z,23.70
2018-08-02T13:32:19.631Z,22.90
2018-08-02T13:34:48.116Z,24.30
2018-08-02T13:39:44.795Z,25.50
2018-08-02T13:42:13.244Z,26.30
2018-08-02T13:44:41.869Z,26.10
2018-08-02T13:47:10.216Z,25.50
2018-08-02T13:49:38.697Z,24.90
2018-08-02T13:52:07.163Z,25.20
2018-08-02T13:54:35.712Z,25.10
2018-08-02T13:57:04.133Z,25.20
2018-08-02T13:59:32.561Z,25.90
2018-08-02T14:02:01.094Z,26.20
2018-08-02T14:04:29.808Z,26.80
2018-08-02T14:06:58.370Z,25.90
2018-08-02T14:09:26.925Z,26.70
2018-08-02T14:11:55.409Z,27.50
2018-08-02T14:14:23.937Z,26.30
2018-08-02T14:16:52.430Z,26.50
2018-08-02T14:19:20.953Z,26.00
2018-08-02T14:21:49.459Z,27.60
2018-08-02T14:24:17.965Z,26.20
2018-08-02T14:26:46.633Z,26.00
2018-08-02T14:29:15.209Z,26.80
2018-08-02T14:31:43.761Z,26.50
2018-08-02T14:34:12.322Z,27.90
2018-08-02T14:36:40.823Z,26.20
2018-08-02T14:39:10.960Z,26.40
2018-08-02T14:41:39.561Z,27.10
2018-08-02T14:44:08.979Z,27.50
2018-08-02T14:46:37.541Z,27.70
2018-08-02T14:49:06.100Z,27.90
2018-08-02T14:51:34.607Z,27.90
2018-08-02T14:54:03.213Z,27.80
2018-08-02T14:56:31.676Z,28.80
2018-08-02T14:59:00.328Z,29.10
2018-08-02T15:01:28.896Z,28.10
2018-08-02T15:03:57.408Z,28.50
2018-08-02T15:06:26.274Z,28.00
2018-08-02T15:08:55.358Z,28.40
2018-08-02T15:11:23.852Z,28.20
2018-08-02T15:13:52.321Z,29.30
2018-08-02T15:16:20.744Z,27.70
2018-08-02T15:18:49.199Z,28.20
2018-08-02T15:21:17.675Z,27.70
2018-08-02T15:23:46.856Z,27.80
2018-08-02T15:26:15.392Z,28.70
2018-08-02T15:31:12.088Z,28.00
2018-08-02T15:33:40.564Z,29.70
2018-08-02T15:36:09.117Z,29.60
2018-08-02T15:38:37.680Z,29.80
2018-08-02T15:41:06.309Z,30.20
2018-08-02T15:43:34.796Z,30.40
2018-08-02T15:46:04.005Z,30.10
2018-08-02T15:48:33.007Z,29.90
2018-08-02T15:51:01.495Z,29.50
2018-08-02T15:53:29.967Z,31.30
2018-08-02T15:55:58.521Z,31.20
2018-08-02T15:58:26.975Z,32.30
2018-08-02T16:00:56.719Z,30.90
2018-08-02T16:03:25.180Z,31.60
2018-08-02T16:05:53.686Z,30.20
2018-08-02T16:08:22.157Z,32.30
2018-08-02T16:10:51.247Z,30.50
2018-08-02T16:13:19.670Z,30.70
2018-08-02T16:15:48.253Z,31.00
2018-08-02T16:18:16.742Z,30.60
2018-08-02T16:20:45.280Z,31.40
2018-08-02T16:23:14.362Z,30.60
2018-08-02T16:25:42.838Z,29.70
2018-08-02T16:28:12.056Z,30.80
2018-08-02T16:30:40.652Z,30.90
2018-08-02T16:33:09.101Z,30.70
2018-08-02T16:38:05.941Z,32.20
2018-08-02T16:40:35.261Z,31.70
2018-08-02T16:43:03.753Z,30.70
2018-08-02T16:45:32.204Z,31.20
2018-08-02T16:48:00.630Z,29.70
2018-08-02T16:50:29.091Z,28.90
2018-08-02T16:52:57.622Z,29.30
2018-08-02T16:55:26.067Z,29.10
2018-08-02T16:57:54.523Z,29.30
2018-08-02T17:00:23.027Z,28.40
2018-08-02T17:02:51.503Z,28.70
2018-08-02T17:05:19.976Z,26.30
2018-08-02T17:07:48.532Z,28.20
2018-08-02T17:10:17.069Z,27.30
2018-08-02T17:12:45.548Z,28.30
2018-08-02T17:15:13.997Z,28.50
2018-08-02T17:17:42.508Z,29.80
2018-08-02T17:20:11.045Z,33.20
2018-08-02T17:22:39.583Z,36.00
2018-08-02T17:25:08.244Z,36.90
2018-08-02T17:27:36.703Z,40.80
2018-08-02T17:30:05.662Z,42.60
2018-08-02T17:32:34.170Z,43.70
2018-08-02T17:35:02.722Z,43.90
2018-08-02T17:37:31.261Z,44.30
2018-08-02T17:39:59.631Z,45.40
2018-08-02T17:42:28.149Z,45.10
2018-08-02T17:44:56.653Z,45.70
2018-08-02T17:47:25.111Z,46.50
2018-08-02T17:49:53.560Z,45.80
2018-08-02T17:52:22.086Z,45.80
2018-08-02T17:54:50.695Z,45.50
2018-08-02T17:57:19.892Z,45.60
2018-08-02T17:59:48.488Z,44.00
2018-08-02T18:02:16.992Z,42.90
2018-08-02T18:04:46.070Z,42.70
2018-08-02T18:07:14.584Z,40.70
2018-08-02T18:09:43.104Z,39.80
2018-08-02T18:12:11.647Z,39.70
2018-08-02T18:14:40.186Z,41.70
2018-08-02T18:17:09.578Z,40.40
2018-08-02T18:19:38.094Z,41.10
2018-08-02T18:22:06.555Z,43.30
2018-08-02T18:24:35.081Z,44.10
2018-08-02T18:27:03.606Z,43.60
2018-08-02T18:29:32.128Z,44.70
2018-08-02T18:32:00.628Z,45.10
2018-08-02T18:34:29.123Z,46.80
2018-08-02T18:36:57.625Z,48.00
2018-08-02T18:39:26.108Z,49.00
2018-08-02T18:41:54.614Z,48.20
2018-08-02T18:44:23.065Z,48.40
2018-08-02T18:46:51.678Z,49.40
2018-08-02T18:49:21.285Z,49.90
2018-08-02T18:51:49.785Z,50.20
2018-08-02T18:54:18.281Z,50.80
2018-08-02T18:56:46.912Z,50.90
2018-08-02T18:59:15.385Z,51.50
2018-08-02T19:01:44.627Z,52.10
2018-08-02T19:04:13.096Z,53.30
2018-08-02T19:06:41.658Z,52.10
2018-08-02T19:09:10.253Z,53.20
2018-08-02T19:11:38.756Z,53.00
2018-08-02T19:14:07.231Z,53.40
2018-08-02T19:16:35.775Z,54.70
2018-08-02T19:19:04.257Z,54.90
2018-08-02T19:21:33.573Z,55.10
2018-08-02T19:24:02.158Z,55.80
2018-08-02T19:26:30.768Z,56.60
2018-08-02T19:28:59.238Z,54.80
2018-08-02T19:31:28.342Z,54.60
2018-08-02T19:33:56.791Z,54.60
2018-08-02T19:36:25.373Z,55.50
2018-08-02T19:38:53.833Z,56.10
2018-08-02T19:41:23.118Z,57.30
2018-08-02T19:43:51.649Z,57.90
2018-08-02T19:46:20.161Z,58.90
2018-08-02T19:48:48.615Z,59.50
2018-08-02T19:51:17.135Z,59.30
2018-08-02T19:53:45.632Z,59.50
2018-08-02T19:56:14.139Z,60.60
2018-08-02T19:58:42.759Z,61.00
2018-08-02T20:01:11.967Z,60.40
2018-08-02T20:03:40.538Z,61.20
2018-08-02T20:06:09.166Z,60.90
2018-08-02T20:08:37.671Z,61.30
2018-08-02T20:11:06.303Z,62.20
2018-08-02T20:13:34.810Z,62.10
2018-08-02T20:16:03.420Z,63.10
2018-08-02T20:18:31.919Z,62.80
2018-08-02T20:21:00.544Z,62.40
2018-08-02T20:23:29.055Z,63.00
2018-08-02T20:25:57.573Z,62.70
2018-08-02T20:28:26.202Z,64.70
2018-08-02T20:30:54.800Z,63.90
2018-08-02T20:33:23.286Z,63.70
2018-08-02T20:35:52.612Z,62.70
2018-08-02T20:38:21.103Z,63.60
2018-08-02T20:40:49.609Z,64.70
2018-08-02T20:43:18.096Z,63.80
2018-08-02T20:45:46.640Z,64.90
2018-08-02T20:48:15.113Z,64.70
2018-08-02T20:50:44.269Z,65.10
2018-08-02T20:53:12.793Z,65.90
2018-08-02T20:55:41.303Z,66.60
2018-08-02T20:58:09.876Z,67.10
2018-08-02T21:00:38.390Z,66.70
2018-08-02T21:03:06.941Z,66.90
2018-08-02T21:05:35.456Z,68.20
2018-08-02T21:08:04.717Z,69.00
2018-08-02T21:10:33.264Z,70.90
2018-08-02T21:13:01.877Z,70.50
2018-08-02T21:15:30.294Z,70.80
2018-08-02T21:17:58.828Z,70.70
2018-08-02T21:20:27.354Z,71.80
2018-08-02T21:22:55.853Z,71.90
2018-08-02T21:25:24.389Z,72.50
2018-08-02T21:27:52.890Z,73.20
2018-08-02T21:30:21.557Z,73.50
2018-08-02T21:32:50.020Z,73.80
2018-08-02T21:35:18.538Z,74.70
2018-08-02T21:37:47.109Z,75.10
2018-08-02T21:40:15.840Z,75.20
2018-08-02T21:42:44.365Z,74.90
2018-08-02T21:45:12.903Z,75.20
2018-08-02T21:50:09.672Z,75.80
2018-08-02T21:52:38.253Z,76.20
2018-08-02T21:55:06.777Z,76.30
2018-08-02T21:57:35.296Z,76.90
2018-08-02T22:00:04.061Z,78.00
2018-08-02T22:02:40.753Z,78.40
2018-08-02T22:05:09.319Z,79.00
2018-08-02T22:07:37.812Z,79.60
2018-08-02T22:10:06.373Z,80.30
2018-08-02T22:12:40.204Z,80.30
2018-08-02T22:15:13.946Z,80.50
2018-08-02T22:17:42.507Z,81.90
2018-08-02T22:20:11.009Z,81.10
2018-08-02T22:22:40.220Z,81.40
2018-08-02T22:25:08.718Z,81.60
2018-08-02T22:27:37.276Z,81.90
2018-08-02T22:30:06.132Z,82.80
2018-08-02T22:32:34.641Z,81.70
2018-08-02T22:35:03.141Z,82.10
2018-08-02T22:37:31.697Z,82.20
2018-08-02T22:40:00.233Z,82.60
2018-08-02T22:42:28.750Z,82.80
2018-08-02T22:44:57.218Z,83.00
2018-08-02T22:47:25.737Z,83.70
2018-08-02T22:49:54.330Z,84.00
2018-08-02T22:52:22.790Z,83.60
2018-08-02T22:54:51.320Z,83.50
2018-08-02T22:57:20.471Z,82.50
2018-08-02T22:59:48.956Z,82.60
2018-08-02T23:02:17.423Z,82.10
2018-08-02T23:04:46.532Z,82.30
2018-08-02T23:07:15.136Z,82.60
2018-08-02T23:09:44.186Z,82.60
2018-08-02T23:12:12.667Z,83.10
2018-08-02T23:14:41.144Z,81.90
2018-08-02T23:17:10.239Z,82.40
2018-08-02T23:19:38.736Z,82.50
2018-08-02T23:22:07.496Z,83.20
2018-08-02T23:24:36.034Z,83.40
2018-08-02T23:27:04.691Z,83.10
2018-08-02T23:29:33.168Z,83.40
2018-08-02T23:32:01.676Z,83.30
2018-08-02T23:34:30.113Z,83.10
2018-08-02T23:36:58.700Z,83.30
2018-08-02T23:39:27.215Z,83.70
2018-08-02T23:41:55.748Z,84.20
2018-08-02T23:44:24.828Z,84.90
2018-08-02T23:46:53.256Z,85.00
2018-08-02T23:49:21.829Z,85.30
2018-08-02T23:51:50.353Z,85.50
2018-08-02T23:54:18.951Z,86.10
2018-08-02T23:56:48.144Z,86.10
2018-08-02T23:59:17.269Z,86.10
